createdAt,value
2018-10-16T00:01:11.539Z,29.52
2018-10-16T00:03:41.362Z,29.59
2018-10-16T00:06:08.100Z,29.58
2018-10-16T00:08:34.833Z,29.56
2018-10-16T00:11:01.516Z,29.66
2018-10-16T00:13:29.245Z,29.58
2018-10-16T00:15:54.849Z,29.68
2018-10-16T00:18:21.595Z,29.63
2018-10-16T00:20:48.240Z,29.73
2018-10-16T00:23:14.965Z,29.67
2018-10-16T00:25:41.742Z,29.70
2018-10-16T00:28:08.392Z,29.72
2018-10-16T00:30:35.087Z,29.74
2018-10-16T00:33:01.802Z,29.74
2018-10-16T00:35:28.433Z,29.74
2018-10-16T00:37:55.144Z,29.83
2018-10-16T00:40:21.802Z,29.80
2018-10-16T00:42:48.491Z,29.80
2018-10-16T00:45:15.130Z,29.83
2018-10-16T00:50:18.952Z,29.88
2018-10-16T00:52:44.221Z,29.84
2018-10-16T00:55:10.900Z,29.82
2018-10-16T00:57:37.632Z,29.85
2018-10-16T01:00:04.305Z,29.84
2018-10-16T01:02:30.996Z,29.92
2018-10-16T01:04:59.859Z,29.90
2018-10-16T01:07:24.363Z,29.97
2018-10-16T01:09:51.104Z,29.97
2018-10-16T01:12:17.981Z,29.92
2018-10-16T01:14:44.752Z,29.96
2018-10-16T01:17:12.621Z,29.98
2018-10-16T01:19:38.153Z,30.06
2018-10-16T01:22:04.851Z,30.06
2018-10-16T01:24:31.501Z,30.05
2018-10-16T01:26:58.239Z,30.09
2018-10-16T01:29:24.933Z,30.13
2018-10-16T01:31:51.693Z,30.25
2018-10-16T01:34:18.309Z,30.16
2018-10-16T01:36:44.956Z,30.13
2018-10-16T01:39:13.415Z,30.19
2018-10-16T01:41:40.103Z,30.14
2018-10-16T01:44:06.799Z,30.19
2018-10-16T01:46:33.437Z,30.22
2018-10-16T01:49:00.151Z,30.24
2018-10-16T01:51:26.783Z,30.30
2018-10-16T01:53:53.417Z,30.21
2018-10-16T01:56:20.123Z,30.24
2018-10-16T01:58:46.767Z,30.30
2018-10-16T02:01:13.538Z,30.34
2018-10-16T02:03:40.174Z,30.36
2018-10-16T02:06:06.832Z,30.33
2018-10-16T02:08:33.629Z,30.37
2018-10-16T02:11:00.353Z,30.42
2018-10-16T02:13:27.073Z,30.41
2018-10-16T02:15:53.715Z,30.40
2018-10-16T02:18:20.488Z,30.35
2018-10-16T02:20:47.127Z,30.48
2018-10-16T02:23:14.978Z,30.46
2018-10-16T02:25:40.623Z,30.48
2018-10-16T02:28:07.279Z,30.51
2018-10-16T02:30:33.933Z,30.49
2018-10-16T02:33:00.593Z,30.49
2018-10-16T02:35:27.322Z,30.52
2018-10-16T02:37:54.015Z,30.55
2018-10-16T02:40:20.680Z,30.61
2018-10-16T02:42:47.372Z,30.57
2018-10-16T02:45:14.015Z,30.56
2018-10-16T02:47:40.689Z,30.66
2018-10-16T02:50:07.328Z,30.55
2018-10-16T02:52:34.056Z,30.62
2018-10-16T02:55:01.070Z,30.62
2018-10-16T02:57:27.693Z,30.63
2018-10-16T02:59:54.339Z,30.65
2018-10-16T03:02:20.991Z,30.65
2018-10-16T03:04:47.621Z,30.70
2018-10-16T03:07:17.540Z,30.69
2018-10-16T03:09:44.191Z,30.60
2018-10-16T03:12:10.830Z,30.79
2018-10-16T03:14:37.520Z,31.17
2018-10-16T03:17:04.255Z,31.02
2018-10-16T03:19:30.894Z,31.36
2018-10-16T03:21:57.530Z,31.47
2018-10-16T03:24:25.457Z,31.60
2018-10-16T03:26:50.819Z,31.99
2018-10-16T03:29:20.298Z,32.26
2018-10-16T03:31:46.951Z,32.22
2018-10-16T03:34:13.689Z,31.43
2018-10-16T03:36:40.336Z,31.38
2018-10-16T03:39:07.003Z,30.90
2018-10-16T03:41:33.659Z,30.41
2018-10-16T03:44:00.398Z,30.11
2018-10-16T03:46:28.138Z,29.97
2018-10-16T03:48:54.781Z,29.80
2018-10-16T03:51:21.428Z,29.57
2018-10-16T03:53:48.083Z,29.55
2018-10-16T03:56:14.732Z,29.41
2018-10-16T03:58:45.220Z,29.30
2018-10-16T04:01:10.491Z,29.22
2018-10-16T04:03:37.230Z,29.11
2018-10-16T04:06:03.872Z,28.97
2018-10-16T04:08:30.579Z,28.85
2018-10-16T04:10:57.232Z,28.90
2018-10-16T04:13:23.883Z,28.94
2018-10-16T04:15:50.593Z,28.80
2018-10-16T04:18:17.292Z,28.68
2018-10-16T04:20:44.076Z,28.84
2018-10-16T04:23:10.684Z,28.73
2018-10-16T04:25:37.352Z,28.63
2018-10-16T04:28:03.966Z,28.60
2018-10-16T04:30:32.020Z,28.52
2018-10-16T04:32:57.298Z,28.39
2018-10-16T04:35:23.935Z,28.31
2018-10-16T04:37:50.592Z,28.12
2018-10-16T04:40:20.011Z,28.07
2018-10-16T04:42:46.768Z,28.04
2018-10-16T04:45:13.474Z,27.96
2018-10-16T04:47:40.134Z,27.95
2018-10-16T04:50:08.121Z,27.91
2018-10-16T04:52:33.438Z,27.87
2018-10-16T04:55:00.510Z,27.77
2018-10-16T04:57:27.129Z,27.64
2018-10-16T04:59:59.172Z,27.68
2018-10-16T05:02:23.592Z,27.59
2018-10-16T05:04:50.294Z,27.49
2018-10-16T05:07:16.937Z,27.43
2018-10-16T05:09:43.577Z,27.65
2018-10-16T05:12:10.285Z,27.39
2018-10-16T05:14:36.927Z,27.23
2018-10-16T05:17:03.570Z,27.15
2018-10-16T05:19:30.226Z,27.03
2018-10-16T05:21:56.881Z,26.91
2018-10-16T05:24:23.564Z,26.77
2018-10-16T05:26:50.291Z,26.65
2018-10-16T05:29:16.963Z,26.78
2018-10-16T05:31:43.579Z,26.38
2018-10-16T05:34:10.273Z,26.07
2018-10-16T05:36:38.112Z,26.08
2018-10-16T05:39:05.716Z,26.12
2018-10-16T05:41:35.454Z,25.78
2018-10-16T05:44:02.135Z,26.02
2018-10-16T05:46:30.134Z,25.90
2018-10-16T05:48:55.565Z,25.78
2018-10-16T05:51:22.144Z,25.58
2018-10-16T05:53:48.849Z,25.76
2018-10-16T05:56:15.485Z,25.77
2018-10-16T05:58:42.144Z,26.17
2018-10-16T06:01:08.885Z,26.28
2018-10-16T06:03:35.661Z,26.86
2018-10-16T06:06:02.296Z,26.56
2018-10-16T06:08:29.082Z,26.73
2018-10-16T06:10:55.782Z,27.10
2018-10-16T06:13:22.383Z,27.21
2018-10-16T06:15:49.057Z,27.41
2018-10-16T06:18:15.762Z,27.23
2018-10-16T06:20:45.723Z,27.39
2018-10-16T06:23:12.369Z,27.37
2018-10-16T06:25:39.129Z,27.62
2018-10-16T06:28:05.849Z,27.43
2018-10-16T06:30:32.466Z,27.22
2018-10-16T06:33:00.460Z,27.31
2018-10-16T06:35:25.796Z,27.35
2018-10-16T06:37:52.518Z,27.30
2018-10-16T06:40:19.231Z,27.31
2018-10-16T06:42:45.806Z,27.40
2018-10-16T06:45:12.468Z,27.52
2018-10-16T06:47:39.259Z,27.39
2018-10-16T06:50:05.814Z,27.48
2018-10-16T06:52:32.459Z,27.65
2018-10-16T06:54:59.122Z,27.67
2018-10-16T06:57:25.848Z,27.68
2018-10-16T06:59:53.869Z,27.76
2018-10-16T07:02:19.214Z,27.64
2018-10-16T07:04:45.965Z,27.61
2018-10-16T07:07:12.792Z,28.10
2018-10-16T07:09:39.342Z,27.79
2018-10-16T07:12:06.127Z,27.74
2018-10-16T07:14:32.767Z,27.83
2018-10-16T07:16:59.562Z,28.05
2018-10-16T07:19:26.199Z,27.84
2018-10-16T07:24:22.233Z,28.23
2018-10-16T07:26:48.982Z,27.92
2018-10-16T07:29:15.700Z,28.09
2018-10-16T07:31:42.354Z,28.16
2018-10-16T07:34:09.030Z,28.24
2018-10-16T07:36:36.930Z,28.24
2018-10-16T07:39:02.622Z,28.29
2018-10-16T07:41:29.168Z,28.24
2018-10-16T07:43:55.832Z,28.32
2018-10-16T07:46:25.350Z,28.36
2018-10-16T07:48:53.313Z,28.38
2018-10-16T07:51:18.862Z,28.47
2018-10-16T07:53:45.501Z,28.55
2018-10-16T07:56:12.160Z,28.39
2018-10-16T07:58:38.867Z,28.60
2018-10-16T08:01:06.905Z,28.74
2018-10-16T08:03:34.744Z,28.69
2018-10-16T08:05:59.197Z,28.67
2018-10-16T08:08:26.873Z,28.81
2018-10-16T08:10:53.661Z,28.87
2018-10-16T08:13:20.350Z,28.95
2018-10-16T08:15:47.065Z,28.96
2018-10-16T08:18:13.781Z,28.89
2018-10-16T08:20:40.429Z,28.99
2018-10-16T08:23:07.150Z,29.11
2018-10-16T08:25:33.839Z,29.12
2018-10-16T08:28:00.486Z,29.15
2018-10-16T08:30:27.148Z,29.16
2018-10-16T08:32:53.851Z,29.17
2018-10-16T08:35:20.498Z,29.17
2018-10-16T08:40:52.343Z,29.41
2018-10-16T08:43:19.057Z,29.42
2018-10-16T08:45:45.738Z,29.45
2018-10-16T08:48:12.413Z,29.51
2018-10-16T08:50:39.059Z,29.51
2018-10-16T08:53:05.695Z,29.44
2018-10-16T08:55:32.388Z,29.50
2018-10-16T08:58:01.315Z,29.44
2018-10-16T09:00:26.845Z,29.43
2018-10-16T09:02:53.527Z,29.35
2018-10-16T09:05:23.391Z,29.18
2018-10-16T09:07:51.413Z,29.45
2018-10-16T09:10:16.758Z,29.41
2018-10-16T09:12:43.587Z,29.42
2018-10-16T09:15:10.243Z,29.56
2018-10-16T09:17:36.938Z,29.50
2018-10-16T09:20:03.854Z,29.50
2018-10-16T09:22:30.513Z,29.48
2018-10-16T09:24:57.268Z,29.53
2018-10-16T09:27:23.902Z,29.46
2018-10-16T09:29:50.836Z,29.43
2018-10-16T09:32:17.995Z,29.43
2018-10-16T09:34:44.737Z,29.42
2018-10-16T09:37:11.409Z,29.22
2018-10-16T09:39:38.049Z,29.55
2018-10-16T09:42:06.008Z,29.32
2018-10-16T09:44:31.566Z,29.19
2018-10-16T09:47:01.104Z,29.54
2018-10-16T09:49:28.802Z,29.56
2018-10-16T09:51:55.569Z,29.54
2018-10-16T09:54:22.408Z,29.07
2018-10-16T09:56:49.062Z,29.06
2018-10-16T09:59:15.819Z,29.09
2018-10-16T10:01:42.478Z,29.38
2018-10-16T10:04:09.133Z,29.47
2018-10-16T10:06:35.771Z,29.19
2018-10-16T10:09:02.526Z,29.36
2018-10-16T10:11:30.574Z,29.25
2018-10-16T10:13:57.057Z,29.23
2018-10-16T10:16:23.816Z,29.20
2018-10-16T10:18:50.765Z,29.07
2018-10-16T10:21:17.610Z,29.16
2018-10-16T10:23:44.230Z,29.09
2018-10-16T10:26:11.055Z,28.97
2018-10-16T10:28:37.711Z,28.90
2018-10-16T10:31:05.671Z,28.80
2018-10-16T10:33:31.038Z,28.78
2018-10-16T10:35:57.805Z,28.76
2018-10-16T10:38:24.501Z,29.01
2018-10-16T10:40:51.165Z,28.70
2018-10-16T10:43:17.880Z,29.18
2018-10-16T10:45:44.621Z,29.17
2018-10-16T10:48:14.147Z,29.04
2018-10-16T10:50:41.311Z,28.92
2018-10-16T10:53:07.606Z,28.83
2018-10-16T10:55:34.313Z,28.92
2018-10-16T10:58:01.011Z,28.92
2018-10-16T11:00:29.300Z,28.83
2018-10-16T11:02:54.762Z,28.80
2018-10-16T11:05:21.523Z,28.78
2018-10-16T11:07:48.264Z,28.76
2018-10-16T11:10:15.038Z,28.81
2018-10-16T11:12:41.699Z,29.02
2018-10-16T11:15:08.438Z,28.73
2018-10-16T11:17:35.271Z,28.71
2018-10-16T11:20:02.050Z,28.60
2018-10-16T11:22:28.687Z,28.69
2018-10-16T11:24:55.508Z,28.63
2018-10-16T11:27:22.255Z,28.47
2018-10-16T11:29:48.956Z,28.67
2018-10-16T11:32:15.622Z,28.44
2018-10-16T11:34:42.315Z,28.39
2018-10-16T11:37:09.056Z,28.31
2018-10-16T11:39:35.652Z,28.41
2018-10-16T11:42:02.302Z,28.45
2018-10-16T11:44:29.065Z,28.49
2018-10-16T11:46:55.726Z,28.52
2018-10-16T11:49:22.490Z,28.46
2018-10-16T11:51:49.155Z,28.06
2018-10-16T11:54:15.829Z,28.34
2018-10-16T11:56:42.465Z,28.30
2018-10-16T11:59:09.241Z,27.89
2018-10-16T12:01:35.909Z,27.18
2018-10-16T12:04:03.220Z,27.69
2018-10-16T12:06:31.148Z,28.03
2018-10-16T12:08:56.606Z,26.79
2018-10-16T12:11:26.643Z,26.53
2018-10-16T12:13:56.565Z,26.98
2018-10-16T12:16:23.624Z,26.17
2018-10-16T12:18:50.344Z,25.87
2018-10-16T12:21:19.987Z,25.49
2018-10-16T12:23:46.703Z,25.60
2018-10-16T12:26:13.431Z,26.68
2018-10-16T12:28:40.276Z,26.30
2018-10-16T12:31:07.165Z,26.34
2018-10-16T12:33:33.771Z,26.60
2018-10-16T12:36:00.529Z,26.08
2018-10-16T12:38:27.466Z,25.96
2018-10-16T12:40:54.023Z,25.52
2018-10-16T12:43:20.779Z,25.33
2018-10-16T12:45:50.469Z,25.56
2018-10-16T12:48:17.151Z,25.47
2018-10-16T12:50:43.954Z,25.70
2018-10-16T12:53:10.705Z,25.25
2018-10-16T12:55:37.217Z,25.32
2018-10-16T12:58:03.950Z,25.73
2018-10-16T13:00:30.679Z,25.51
2018-10-16T13:02:57.355Z,25.44
2018-10-16T13:05:24.045Z,25.38
2018-10-16T13:07:54.002Z,24.69
2018-10-16T13:10:20.731Z,24.75
2018-10-16T13:12:47.360Z,24.77
2018-10-16T13:15:16.081Z,25.10
2018-10-16T13:17:40.856Z,25.15
2018-10-16T13:20:07.616Z,24.92
2018-10-16T13:22:34.165Z,24.47
2018-10-16T13:25:00.814Z,24.71
2018-10-16T13:27:27.473Z,24.82
2018-10-16T13:29:55.613Z,24.55
2018-10-16T13:32:20.805Z,24.50
2018-10-16T13:34:47.418Z,24.68
2018-10-16T13:37:14.079Z,24.71
2018-10-16T13:39:40.735Z,24.70
2018-10-16T13:42:07.397Z,24.71
2018-10-16T13:44:35.408Z,24.93
2018-10-16T13:47:00.705Z,25.05
2018-10-16T13:49:27.438Z,25.24
2018-10-16T13:51:54.139Z,25.07
2018-10-16T13:54:20.795Z,25.33
2018-10-16T13:56:47.468Z,25.38
2018-10-16T13:59:16.681Z,25.34
2018-10-16T14:01:43.364Z,25.41
2018-10-16T14:04:10.058Z,25.08
2018-10-16T14:06:36.644Z,25.09
2018-10-16T14:09:03.304Z,25.57
2018-10-16T14:11:29.950Z,25.64
2018-10-16T14:13:56.696Z,25.48
2018-10-16T14:16:23.358Z,25.12
2018-10-16T14:18:50.010Z,25.02
2018-10-16T14:21:16.747Z,25.39
2018-10-16T14:23:46.347Z,25.77
2018-10-16T14:26:13.205Z,25.50
2018-10-16T14:28:39.725Z,25.34
2018-10-16T14:31:06.374Z,25.30
2018-10-16T14:33:33.132Z,25.40
2018-10-16T14:35:59.803Z,25.41
2018-10-16T14:38:28.688Z,25.50
2018-10-16T14:40:55.472Z,25.24
2018-10-16T14:43:22.281Z,25.48
2018-10-16T14:45:49.035Z,25.52
2018-10-16T14:48:18.002Z,25.34
2018-10-16T14:50:44.816Z,25.43
2018-10-16T14:53:11.433Z,25.47
2018-10-16T14:55:38.078Z,25.43
2018-10-16T14:58:04.796Z,25.52
2018-10-16T15:00:31.405Z,25.53
2018-10-16T15:02:58.177Z,25.50
2018-10-16T15:05:24.820Z,25.44
2018-10-16T15:07:51.531Z,25.51
2018-10-16T15:10:18.239Z,25.51
2018-10-16T15:12:44.804Z,25.10
2018-10-16T15:15:11.609Z,25.62
2018-10-16T15:17:38.246Z,25.62
2018-10-16T15:20:05.551Z,25.59
2018-10-16T15:22:35.024Z,25.55
2018-10-16T15:25:01.675Z,25.60
2018-10-16T15:27:28.324Z,25.72
2018-10-16T15:29:54.980Z,25.90
2018-10-16T15:32:21.818Z,25.83
2018-10-16T15:34:48.462Z,26.03
2018-10-16T15:37:15.115Z,26.11
2018-10-16T15:39:41.858Z,26.12
2018-10-16T15:42:11.973Z,26.12
2018-10-16T15:44:40.176Z,26.22
2018-10-16T15:47:05.209Z,26.20
2018-10-16T15:49:31.854Z,26.29
2018-10-16T15:51:58.659Z,26.10
2018-10-16T15:54:25.247Z,26.26
2018-10-16T15:56:51.891Z,26.34
2018-10-16T15:59:21.485Z,26.31
2018-10-16T16:01:48.138Z,26.43
2018-10-16T16:04:14.790Z,26.46
2018-10-16T16:06:41.431Z,26.50
2018-10-16T16:09:08.578Z,26.45
2018-10-16T16:11:35.278Z,26.58
2018-10-16T16:14:01.948Z,26.58
2018-10-16T16:16:28.661Z,26.61
2018-10-16T16:18:55.403Z,26.68
2018-10-16T16:21:22.051Z,26.71
2018-10-16T16:23:48.817Z,26.74
2018-10-16T16:26:15.534Z,26.79
2018-10-16T16:28:42.090Z,26.68
2018-10-16T16:31:08.795Z,26.84
2018-10-16T16:33:35.565Z,26.88
2018-10-16T16:36:02.307Z,26.92
2018-10-16T16:38:29.015Z,26.85
2018-10-16T16:40:55.846Z,27.01
2018-10-16T16:43:22.419Z,26.97
2018-10-16T16:45:49.141Z,26.95
2018-10-16T16:48:15.814Z,27.00
2018-10-16T16:50:42.454Z,27.03
2018-10-16T16:53:09.248Z,27.00
2018-10-16T16:55:35.923Z,27.02
2018-10-16T16:58:02.578Z,27.08
2018-10-16T17:00:29.210Z,27.17
2018-10-16T17:02:56.005Z,27.15
2018-10-16T17:05:23.891Z,27.21
2018-10-16T17:07:49.256Z,27.19
2018-10-16T17:10:16.077Z,27.20
2018-10-16T17:12:42.627Z,27.26
2018-10-16T17:15:09.366Z,27.21
2018-10-16T17:20:03.757Z,27.29
2018-10-16T17:22:29.035Z,27.35
2018-10-16T17:24:55.754Z,27.31
2018-10-16T17:27:22.391Z,27.33
2018-10-16T17:29:49.228Z,27.32
2018-10-16T17:32:15.906Z,27.31
2018-10-16T17:34:42.585Z,27.32
2018-10-16T17:37:09.303Z,27.31
2018-10-16T17:39:36.121Z,27.17
2018-10-16T17:42:02.725Z,27.06
2018-10-16T17:44:29.372Z,27.28
2018-10-16T17:46:56.026Z,27.36
2018-10-16T17:49:22.666Z,27.31
2018-10-16T17:51:49.302Z,27.33
2018-10-16T17:54:15.982Z,27.35
2018-10-16T17:56:42.646Z,27.37
2018-10-16T17:59:09.427Z,27.38
2018-10-16T18:01:36.158Z,27.38
2018-10-16T18:04:02.826Z,27.41
2018-10-16T18:06:30.897Z,27.42
2018-10-16T18:08:56.151Z,27.43
2018-10-16T18:11:22.782Z,27.42
2018-10-16T18:13:49.508Z,27.45
2018-10-16T18:16:16.132Z,27.46
2018-10-16T18:18:42.767Z,27.50
2018-10-16T18:21:09.441Z,27.46
2018-10-16T18:23:36.120Z,27.44
2018-10-16T18:26:02.758Z,27.41
2018-10-16T18:28:30.838Z,27.48
2018-10-16T18:30:56.137Z,27.45
2018-10-16T18:33:24.879Z,27.42
2018-10-16T18:35:51.602Z,27.51
2018-10-16T18:38:18.358Z,27.45
2018-10-16T18:40:45.002Z,27.47
2018-10-16T18:43:11.646Z,27.46
2018-10-16T18:45:38.384Z,27.54
2018-10-16T18:48:05.080Z,27.50
2018-10-16T18:50:31.742Z,27.48
2018-10-16T18:52:58.396Z,27.49
2018-10-16T18:55:25.165Z,27.43
2018-10-16T18:57:51.810Z,27.47
2018-10-16T19:00:21.844Z,27.54
2018-10-16T19:02:48.515Z,27.52
2018-10-16T19:05:15.170Z,27.53
2018-10-16T19:07:41.851Z,27.56
2018-10-16T19:10:08.590Z,27.54
2018-10-16T19:12:35.311Z,27.47
2018-10-16T19:15:02.173Z,27.55
2018-10-16T19:17:28.701Z,27.58
2018-10-16T19:19:55.384Z,27.48
2018-10-16T19:22:22.044Z,27.52
2018-10-16T19:24:48.690Z,27.52
2018-10-16T19:27:15.400Z,27.55
2018-10-16T19:29:41.988Z,27.52
2018-10-16T19:32:08.711Z,27.50
2018-10-16T19:34:36.752Z,27.52
2018-10-16T19:37:02.066Z,27.51
2018-10-16T19:39:28.707Z,27.52
2018-10-16T19:41:55.357Z,27.48
2018-10-16T19:44:22.177Z,27.48
2018-10-16T19:46:48.830Z,27.46
2018-10-16T19:49:15.559Z,27.53
2018-10-16T19:51:42.209Z,27.50
2018-10-16T19:54:08.876Z,27.53
2018-10-16T19:56:35.525Z,27.48
2018-10-16T19:59:02.209Z,27.51
2018-10-16T20:01:28.841Z,27.53
2018-10-16T20:03:55.544Z,27.44
2018-10-16T20:06:25.545Z,27.50
2018-10-16T20:08:52.300Z,27.51
2018-10-16T20:11:18.900Z,27.52
2018-10-16T20:13:45.536Z,27.48
2018-10-16T20:16:12.263Z,27.51
2018-10-16T20:18:38.907Z,27.51
2018-10-16T20:21:05.590Z,27.55
2018-10-16T20:23:32.217Z,27.47
2018-10-16T20:25:58.911Z,27.53
2018-10-16T20:28:25.576Z,27.51
2018-10-16T20:30:52.270Z,27.50
2018-10-16T20:33:18.887Z,27.53
2018-10-16T20:35:45.532Z,27.48
2018-10-16T20:38:12.209Z,27.52
2018-10-16T20:40:38.845Z,27.46
2018-10-16T20:43:05.518Z,27.54
2018-10-16T20:45:32.232Z,27.44
2018-10-16T20:47:58.910Z,27.50
2018-10-16T20:50:25.633Z,27.52
2018-10-16T20:52:52.336Z,27.56
2018-10-16T20:55:18.959Z,27.52
2018-10-16T20:57:45.638Z,27.50
2018-10-16T21:00:12.434Z,27.48
2018-10-16T21:02:39.110Z,27.53
2018-10-16T21:05:06.038Z,27.52
2018-10-16T21:07:32.711Z,27.51
2018-10-16T21:09:59.277Z,27.45
2018-10-16T21:12:28.052Z,27.48
2018-10-16T21:14:54.793Z,27.54
2018-10-16T21:17:24.800Z,27.55
2018-10-16T21:19:51.549Z,27.53
2018-10-16T21:22:18.214Z,27.55
2018-10-16T21:24:46.088Z,27.48
2018-10-16T21:27:11.480Z,27.55
2018-10-16T21:29:38.107Z,27.53
2018-10-16T21:32:04.757Z,27.53
2018-10-16T21:34:31.401Z,27.49
2018-10-16T21:36:58.072Z,27.48
2018-10-16T21:39:24.696Z,27.53
2018-10-16T21:41:51.330Z,27.55
2018-10-16T21:44:19.852Z,27.50
2018-10-16T21:46:44.657Z,27.57
2018-10-16T21:49:14.108Z,27.55
2018-10-16T21:51:40.630Z,27.53
2018-10-16T21:54:07.341Z,27.51
2018-10-16T21:56:34.038Z,27.55
2018-10-16T21:59:00.759Z,27.58
2018-10-16T22:01:30.353Z,27.52
2018-10-16T22:03:56.997Z,27.61
2018-10-16T22:06:23.647Z,27.55
2018-10-16T22:08:50.333Z,27.54
2018-10-16T22:11:17.065Z,27.54
2018-10-16T22:13:43.792Z,27.52
2018-10-16T22:16:10.531Z,27.61
2018-10-16T22:18:37.245Z,27.49
2018-10-16T22:21:03.962Z,27.52
2018-10-16T22:23:30.643Z,27.50
2018-10-16T22:25:57.260Z,27.55
2018-10-16T22:28:23.949Z,27.48
2018-10-16T22:30:50.598Z,27.55
2018-10-16T22:33:17.322Z,27.48
2018-10-16T22:35:43.962Z,27.50
2018-10-16T22:38:13.397Z,27.53
2018-10-16T22:40:41.472Z,27.48
2018-10-16T22:43:06.834Z,27.48
2018-10-16T22:45:33.613Z,27.54
2018-10-16T22:48:00.295Z,27.49
2018-10-16T22:50:26.988Z,27.55
2018-10-16T22:52:53.726Z,27.52
2018-10-16T22:55:20.338Z,27.52
2018-10-16T22:57:47.017Z,27.57
2018-10-16T23:00:13.746Z,27.59
2018-10-16T23:02:40.517Z,27.53
2018-10-16T23:05:07.361Z,27.54
2018-10-16T23:07:33.999Z,27.56
2018-10-16T23:10:00.740Z,27.59
2018-10-16T23:12:28.670Z,27.65
2018-10-16T23:14:54.088Z,27.69
2018-10-16T23:17:20.729Z,27.78
2018-10-16T23:19:47.509Z,27.77
2018-10-16T23:22:14.164Z,27.72
2018-10-16T23:24:40.915Z,27.79
2018-10-16T23:27:07.560Z,27.84
2018-10-16T23:29:34.262Z,27.83
2018-10-16T23:32:02.230Z,27.83
2018-10-16T23:34:27.707Z,27.88
2018-10-16T23:36:54.338Z,27.92
2018-10-16T23:39:21.053Z,27.92
2018-10-16T23:41:47.690Z,27.90
2018-10-16T23:44:14.381Z,27.90
2018-10-16T23:46:41.012Z,27.83
2018-10-16T23:49:07.719Z,27.96
2018-10-16T23:51:34.316Z,27.89
2018-10-16T23:54:01.087Z,27.92
2018-10-16T23:56:27.721Z,27.92
2018-10-16T23:58:54.468Z,27.95
